sensor_id;sensor_type;location;lat;lon;timestamp;P1;durP1;ratioP1;P2;durP2;ratioP2
7348;SDS011;13010;-33.424;-70.614;2023-02-03T00:02:42;4.70;;;2.83;;
7348;SDS011;13010;-33.424;-70.614;2023-02-03T00:05:31;6.90;;;3.60;;
7348;SDS011;13010;-33.424;-70.614;2023-02-03T00:08:22;9.63;;;6.00;;
7348;SDS011;13010;-33.424;-70.614;2023-02-03T00:11:11;7.43;;;6.00;;
7348;SDS011;13010;-33.424;-70.614;2023-02-03T00:14:02;8.23;;;7.17;;
7348;SDS011;13010;-33.424;-70.614;2023-02-03T00:16:51;11.17;;;8.43;;
7348;SDS011;13010;-33.424;-70.614;2023-02-03T00:19:40;13.50;;;8.43;;
7348;SDS011;13010;-33.424;-70.614;2023-02-03T00:22:29;22.47;;;11.80;;
7348;SDS011;13010;-33.424;-70.614;2023-02-03T00:25:17;19.27;;;13.00;;
7348;SDS011;13010;-33.424;-70.614;2023-02-03T00:28:06;19.90;;;14.17;;
7348;SDS011;13010;-33.424;-70.614;2023-02-03T00:30:57;16.53;;;13.67;;
7348;SDS011;13010;-33.424;-70.614;2023-02-03T00:33:46;18.63;;;13.37;;
7348;SDS011;13010;-33.424;-70.614;2023-02-03T00:36:39;17.60;;;15.40;;
7348;SDS011;13010;-33.424;-70.614;2023-02-03T00:39:30;25.77;;;15.20;;
7348;SDS011;13010;-33.424;-70.614;2023-02-03T00:42:19;18.07;;;15.60;;
7348;SDS011;13010;-33.424;-70.614;2023-02-03T00:45:08;17.00;;;15.30;;
7348;SDS011;13010;-33.424;-70.614;2023-02-03T00:47:59;21.20;;;15.37;;
7348;SDS011;13010;-33.424;-70.614;2023-02-03T00:50:48;25.77;;;17.10;;
7348;SDS011;13010;-33.424;-70.614;2023-02-03T00:53:37;22.70;;;16.73;;
7348;SDS011;13010;-33.424;-70.614;2023-02-03T00:56:25;17.97;;;16.10;;
7348;SDS011;13010;-33.424;-70.614;2023-02-03T00:59:15;24.37;;;16.77;;
7348;SDS011;13010;-33.424;-70.614;2023-02-03T01:02:03;20.30;;;15.30;;
7348;SDS011;13010;-33.424;-70.614;2023-02-03T01:04:54;20.63;;;16.83;;
7348;SDS011;13010;-33.424;-70.614;2023-02-03T01:07:43;18.37;;;16.27;;
7348;SDS011;13010;-33.424;-70.614;2023-02-03T01:10:32;26.97;;;14.70;;
7348;SDS011;13010;-33.424;-70.614;2023-02-03T01:13:23;17.17;;;12.83;;
7348;SDS011;13010;-33.424;-70.614;2023-02-03T01:16:13;14.40;;;11.60;;
7348;SDS011;13010;-33.424;-70.614;2023-02-03T01:19:02;15.77;;;11.47;;
7348;SDS011;13010;-33.424;-70.614;2023-02-03T01:21:53;26.83;;;11.97;;
7348;SDS011;13010;-33.424;-70.614;2023-02-03T01:24:42;14.83;;;11.00;;
7348;SDS011;13010;-33.424;-70.614;2023-02-03T01:27:31;25.50;;;11.30;;
7348;SDS011;13010;-33.424;-70.614;2023-02-03T01:30:20;18.07;;;10.37;;
7348;SDS011;13010;-33.424;-70.614;2023-02-03T01:33:08;23.20;;;9.13;;
7348;SDS011;13010;-33.424;-70.614;2023-02-03T01:35:59;14.53;;;9.20;;
7348;SDS011;13010;-33.424;-70.614;2023-02-03T01:38:50;11.13;;;8.37;;
7348;SDS011;13010;-33.424;-70.614;2023-02-03T01:41:39;13.90;;;9.80;;
7348;SDS011;13010;-33.424;-70.614;2023-02-03T01:44:38;12.60;;;8.93;;
7348;SDS011;13010;-33.424;-70.614;2023-02-03T01:47:31;17.93;;;10.03;;
7348;SDS011;13010;-33.424;-70.614;2023-02-03T01:50:24;13.13;;;8.30;;
7348;SDS011;13010;-33.424;-70.614;2023-02-03T01:53:16;24.03;;;9.40;;
7348;SDS011;13010;-33.424;-70.614;2023-02-03T01:56:06;21.48;;;10.18;;
7348;SDS011;13010;-33.424;-70.614;2023-02-03T01:58:56;9.67;;;8.20;;
7348;SDS011;13010;-33.424;-70.614;2023-02-03T02:01:45;13.80;;;7.70;;
7348;SDS011;13010;-33.424;-70.614;2023-02-03T02:04:35;18.23;;;9.27;;
7348;SDS011;13010;-33.424;-70.614;2023-02-03T02:07:32;18.23;;;7.87;;
7348;SDS011;13010;-33.424;-70.614;2023-02-03T02:10:24;31.30;;;8.77;;
7348;SDS011;13010;-33.424;-70.614;2023-02-03T02:13:16;13.50;;;8.03;;
7348;SDS011;13010;-33.424;-70.614;2023-02-03T02:16:08;14.63;;;8.00;;
7348;SDS011;13010;-33.424;-70.614;2023-02-03T02:19:15;14.53;;;7.93;;
7348;SDS011;13010;-33.424;-70.614;2023-02-03T02:22:17;21.30;;;6.93;;
7348;SDS011;13010;-33.424;-70.614;2023-02-03T02:25:13;15.40;;;8.23;;
7348;SDS011;13010;-33.424;-70.614;2023-02-03T02:28:31;16.17;;;7.53;;
7348;SDS011;13010;-33.424;-70.614;2023-02-03T02:31:45;16.67;;;7.77;;
7348;SDS011;13010;-33.424;-70.614;2023-02-03T02:34:50;14.80;;;7.10;;
7348;SDS011;13010;-33.424;-70.614;2023-02-03T02:37:49;14.67;;;7.17;;
7348;SDS011;13010;-33.424;-70.614;2023-02-03T02:40:46;15.27;;;7.77;;
7348;SDS011;13010;-33.424;-70.614;2023-02-03T02:43:40;16.70;;;7.50;;
7348;SDS011;13010;-33.424;-70.614;2023-02-03T02:46:32;22.17;;;7.23;;
7348;SDS011;13010;-33.424;-70.614;2023-02-03T02:49:26;15.00;;;8.20;;
7348;SDS011;13010;-33.424;-70.614;2023-02-03T02:52:19;13.30;;;8.13;;
7348;SDS011;13010;-33.424;-70.614;2023-02-03T02:55:12;13.63;;;8.33;;
7348;SDS011;13010;-33.424;-70.614;2023-02-03T02:58:08;11.00;;;7.53;;
7348;SDS011;13010;-33.424;-70.614;2023-02-03T03:01:00;7.90;;;7.10;;
7348;SDS011;13010;-33.424;-70.614;2023-02-03T03:03:50;11.37;;;7.10;;
7348;SDS011;13010;-33.424;-70.614;2023-02-03T03:06:41;10.73;;;7.47;;
7348;SDS011;13010;-33.424;-70.614;2023-02-03T03:09:33;12.33;;;7.63;;
7348;SDS011;13010;-33.424;-70.614;2023-02-03T03:12:27;20.37;;;7.73;;
7348;SDS011;13010;-33.424;-70.614;2023-02-03T03:15:19;10.23;;;7.20;;
7348;SDS011;13010;-33.424;-70.614;2023-02-03T03:18:12;13.03;;;6.20;;
7348;SDS011;13010;-33.424;-70.614;2023-02-03T03:21:06;16.23;;;7.50;;
7348;SDS011;13010;-33.424;-70.614;2023-02-03T03:24:03;13.20;;;8.93;;
7348;SDS011;13010;-33.424;-70.614;2023-02-03T03:26:56;15.27;;;6.57;;
7348;SDS011;13010;-33.424;-70.614;2023-02-03T03:29:50;11.13;;;7.93;;
7348;SDS011;13010;-33.424;-70.614;2023-02-03T03:32:41;15.10;;;6.90;;
7348;SDS011;13010;-33.424;-70.614;2023-02-03T03:35:31;11.80;;;7.27;;
7348;SDS011;13010;-33.424;-70.614;2023-02-03T03:38:27;16.80;;;7.27;;
7348;SDS011;13010;-33.424;-70.614;2023-02-03T03:41:24;23.47;;;6.50;;
7348;SDS011;13010;-33.424;-70.614;2023-02-03T03:44:16;14.50;;;6.88;;
7348;SDS011;13010;-33.424;-70.614;2023-02-03T03:47:10;11.80;;;6.20;;
7348;SDS011;13010;-33.424;-70.614;2023-02-03T03:50:03;12.90;;;7.40;;
7348;SDS011;13010;-33.424;-70.614;2023-02-03T03:52:56;16.33;;;6.90;;
7348;SDS011;13010;-33.424;-70.614;2023-02-03T03:55:47;11.83;;;7.70;;
7348;SDS011;13010;-33.424;-70.614;2023-02-03T03:58:40;12.73;;;7.80;;
7348;SDS011;13010;-33.424;-70.614;2023-02-03T04:01:31;13.33;;;6.13;;
7348;SDS011;13010;-33.424;-70.614;2023-02-03T04:04:21;10.97;;;7.07;;
7348;SDS011;13010;-33.424;-70.614;2023-02-03T04:07:12;12.60;;;6.67;;
7348;SDS011;13010;-33.424;-70.614;2023-02-03T04:10:02;12.00;;;7.33;;
7348;SDS011;13010;-33.424;-70.614;2023-02-03T04:12:53;10.60;;;6.97;;
7348;SDS011;13010;-33.424;-70.614;2023-02-03T04:15:44;10.90;;;6.63;;
7348;SDS011;13010;-33.424;-70.614;2023-02-03T04:18:32;11.60;;;7.13;;
7348;SDS011;13010;-33.424;-70.614;2023-02-03T04:21:22;15.13;;;6.83;;
7348;SDS011;13010;-33.424;-70.614;2023-02-03T04:24:11;8.23;;;6.00;;
7348;SDS011;13010;-33.424;-70.614;2023-02-03T04:27:00;10.90;;;7.60;;
7348;SDS011;13010;-33.424;-70.614;2023-02-03T04:29:49;9.00;;;6.67;;
7348;SDS011;13010;-33.424;-70.614;2023-02-03T04:32:40;15.03;;;6.93;;
7348;SDS011;13010;-33.424;-70.614;2023-02-03T04:35:29;11.35;;;6.72;;
7348;SDS011;13010;-33.424;-70.614;2023-02-03T04:38:17;13.43;;;7.00;;
7348;SDS011;13010;-33.424;-70.614;2023-02-03T04:41:07;8.63;;;6.83;;
7348;SDS011;13010;-33.424;-70.614;2023-02-03T04:43:56;12.43;;;6.47;;
7348;SDS011;13010;-33.424;-70.614;2023-02-03T04:46:45;9.87;;;7.23;;
7348;SDS011;13010;-33.424;-70.614;2023-02-03T04:49:36;11.70;;;6.73;;
7348;SDS011;13010;-33.424;-70.614;2023-02-03T04:52:25;12.97;;;8.47;;
7348;SDS011;13010;-33.424;-70.614;2023-02-03T04:55:14;13.50;;;8.60;;
7348;SDS011;13010;-33.424;-70.614;2023-02-03T04:58:03;13.97;;;8.30;;
7348;SDS011;13010;-33.424;-70.614;2023-02-03T05:00:52;26.60;;;9.37;;
7348;SDS011;13010;-33.424;-70.614;2023-02-03T05:03:41;13.43;;;8.33;;
7348;SDS011;13010;-33.424;-70.614;2023-02-03T05:06:32;14.43;;;8.67;;
7348;SDS011;13010;-33.424;-70.614;2023-02-03T05:09:21;18.47;;;10.30;;
7348;SDS011;13010;-33.424;-70.614;2023-02-03T05:12:09;18.80;;;10.27;;
7348;SDS011;13010;-33.424;-70.614;2023-02-03T05:14:59;15.77;;;8.87;;
7348;SDS011;13010;-33.424;-70.614;2023-02-03T05:17:49;18.67;;;10.50;;
7348;SDS011;13010;-33.424;-70.614;2023-02-03T05:20:39;13.57;;;9.30;;
7348;SDS011;13010;-33.424;-70.614;2023-02-03T05:23:31;16.03;;;10.63;;
7348;SDS011;13010;-33.424;-70.614;2023-02-03T05:26:20;18.47;;;11.10;;
7348;SDS011;13010;-33.424;-70.614;2023-02-03T05:29:09;16.47;;;13.23;;
7348;SDS011;13010;-33.424;-70.614;2023-02-03T05:31:57;17.37;;;12.37;;
7348;SDS011;13010;-33.424;-70.614;2023-02-03T05:34:46;19.67;;;13.80;;
7348;SDS011;13010;-33.424;-70.614;2023-02-03T05:37:36;20.63;;;13.83;;
7348;SDS011;13010;-33.424;-70.614;2023-02-03T05:40:27;25.27;;;15.43;;
7348;SDS011;13010;-33.424;-70.614;2023-02-03T05:43:32;27.23;;;15.20;;
7348;SDS011;13010;-33.424;-70.614;2023-02-03T05:46:21;37.70;;;15.73;;
7348;SDS011;13010;-33.424;-70.614;2023-02-03T05:49:11;23.53;;;15.57;;
7348;SDS011;13010;-33.424;-70.614;2023-02-03T05:52:01;18.63;;;13.83;;
7348;SDS011;13010;-33.424;-70.614;2023-02-03T05:54:50;18.20;;;15.27;;
7348;SDS011;13010;-33.424;-70.614;2023-02-03T05:57:40;23.13;;;15.93;;
7348;SDS011;13010;-33.424;-70.614;2023-02-03T06:00:29;22.90;;;14.27;;
7348;SDS011;13010;-33.424;-70.614;2023-02-03T06:03:18;21.40;;;14.10;;
7348;SDS011;13010;-33.424;-70.614;2023-02-03T06:06:07;22.80;;;13.93;;
7348;SDS011;13010;-33.424;-70.614;2023-02-03T06:08:56;22.07;;;13.70;;
7348;SDS011;13010;-33.424;-70.614;2023-02-03T06:11:45;31.30;;;13.53;;
7348;SDS011;13010;-33.424;-70.614;2023-02-03T06:14:36;20.37;;;12.80;;
7348;SDS011;13010;-33.424;-70.614;2023-02-03T06:17:25;31.33;;;13.30;;
7348;SDS011;13010;-33.424;-70.614;2023-02-03T06:20:14;15.03;;;11.63;;
7348;SDS011;13010;-33.424;-70.614;2023-02-03T06:23:04;14.97;;;11.17;;
7348;SDS011;13010;-33.424;-70.614;2023-02-03T06:25:56;26.43;;;13.77;;
7348;SDS011;13010;-33.424;-70.614;2023-02-03T06:28:45;21.13;;;13.33;;
7348;SDS011;13010;-33.424;-70.614;2023-02-03T06:31:35;17.40;;;14.23;;
7348;SDS011;13010;-33.424;-70.614;2023-02-03T06:34:25;28.17;;;11.70;;
7348;SDS011;13010;-33.424;-70.614;2023-02-03T06:37:14;18.40;;;14.20;;
7348;SDS011;13010;-33.424;-70.614;2023-02-03T06:40:03;23.93;;;14.30;;
7348;SDS011;13010;-33.424;-70.614;2023-02-03T06:42:52;20.37;;;13.27;;
7348;SDS011;13010;-33.424;-70.614;2023-02-03T06:45:41;22.83;;;14.00;;
7348;SDS011;13010;-33.424;-70.614;2023-02-03T06:48:34;47.73;;;14.43;;
7348;SDS011;13010;-33.424;-70.614;2023-02-03T06:51:23;23.10;;;15.37;;
7348;SDS011;13010;-33.424;-70.614;2023-02-03T06:54:12;22.93;;;17.33;;
7348;SDS011;13010;-33.424;-70.614;2023-02-03T06:59:29;23.67;;;16.50;;
7348;SDS011;13010;-33.424;-70.614;2023-02-03T07:02:18;21.33;;;15.80;;
7348;SDS011;13010;-33.424;-70.614;2023-02-03T07:05:09;17.60;;;14.77;;
7348;SDS011;13010;-33.424;-70.614;2023-02-03T07:07:58;29.60;;;15.77;;
7348;SDS011;13010;-33.424;-70.614;2023-02-03T07:10:46;21.50;;;14.63;;
7348;SDS011;13010;-33.424;-70.614;2023-02-03T07:13:39;28.57;;;16.70;;
7348;SDS011;13010;-33.424;-70.614;2023-02-03T07:16:28;24.77;;;15.03;;
7348;SDS011;13010;-33.424;-70.614;2023-02-03T07:19:17;25.30;;;13.90;;
7348;SDS011;13010;-33.424;-70.614;2023-02-03T07:22:08;20.10;;;14.90;;
7348;SDS011;13010;-33.424;-70.614;2023-02-03T07:24:57;28.53;;;15.80;;
7348;SDS011;13010;-33.424;-70.614;2023-02-03T07:27:46;17.77;;;14.40;;
7348;SDS011;13010;-33.424;-70.614;2023-02-03T07:30:35;26.53;;;14.90;;
7348;SDS011;13010;-33.424;-70.614;2023-02-03T07:33:25;25.33;;;14.43;;
7348;SDS011;13010;-33.424;-70.614;2023-02-03T07:36:15;22.97;;;15.33;;
7348;SDS011;13010;-33.424;-70.614;2023-02-03T07:39:05;22.63;;;13.70;;
7348;SDS011;13010;-33.424;-70.614;2023-02-03T07:41:54;25.40;;;14.07;;
7348;SDS011;13010;-33.424;-70.614;2023-02-03T07:44:42;22.87;;;14.87;;
7348;SDS011;13010;-33.424;-70.614;2023-02-03T07:47:31;23.43;;;13.90;;
7348;SDS011;13010;-33.424;-70.614;2023-02-03T07:50:19;22.30;;;14.37;;
7348;SDS011;13010;-33.424;-70.614;2023-02-03T07:53:08;20.50;;;14.27;;
7348;SDS011;13010;-33.424;-70.614;2023-02-03T07:56:00;18.17;;;11.70;;
7348;SDS011;13010;-33.424;-70.614;2023-02-03T07:58:51;17.40;;;13.73;;
7348;SDS011;13010;-33.424;-70.614;2023-02-03T08:01:40;18.00;;;11.47;;
7348;SDS011;13010;-33.424;-70.614;2023-02-03T08:04:30;29.87;;;12.57;;
7348;SDS011;13010;-33.424;-70.614;2023-02-03T08:07:18;18.27;;;12.57;;
7348;SDS011;13010;-33.424;-70.614;2023-02-03T08:10:08;20.00;;;12.10;;
7348;SDS011;13010;-33.424;-70.614;2023-02-03T08:13:01;16.90;;;11.47;;
7348;SDS011;13010;-33.424;-70.614;2023-02-03T08:15:49;26.07;;;10.50;;
7348;SDS011;13010;-33.424;-70.614;2023-02-03T08:18:38;18.57;;;10.17;;
7348;SDS011;13010;-33.424;-70.614;2023-02-03T08:21:30;16.23;;;10.00;;
7348;SDS011;13010;-33.424;-70.614;2023-02-03T08:24:19;15.37;;;10.30;;
7348;SDS011;13010;-33.424;-70.614;2023-02-03T08:27:08;17.20;;;11.27;;
7348;SDS011;13010;-33.424;-70.614;2023-02-03T08:29:58;14.10;;;9.30;;
7348;SDS011;13010;-33.424;-70.614;2023-02-03T08:32:46;20.87;;;10.43;;
7348;SDS011;13010;-33.424;-70.614;2023-02-03T08:35:35;16.17;;;9.80;;
7348;SDS011;13010;-33.424;-70.614;2023-02-03T08:38:24;18.27;;;8.80;;
7348;SDS011;13010;-33.424;-70.614;2023-02-03T08:41:14;17.50;;;10.70;;
7348;SDS011;13010;-33.424;-70.614;2023-02-03T08:44:03;14.87;;;9.33;;
7348;SDS011;13010;-33.424;-70.614;2023-02-03T08:46:53;13.80;;;10.43;;
7348;SDS011;13010;-33.424;-70.614;2023-02-03T08:49:42;13.43;;;8.93;;
7348;SDS011;13010;-33.424;-70.614;2023-02-03T08:52:31;12.70;;;8.70;;
7348;SDS011;13010;-33.424;-70.614;2023-02-03T08:55:20;9.57;;;8.10;;
7348;SDS011;13010;-33.424;-70.614;2023-02-03T08:58:09;15.03;;;8.83;;
7348;SDS011;13010;-33.424;-70.614;2023-02-03T09:01:04;11.47;;;8.87;;
7348;SDS011;13010;-33.424;-70.614;2023-02-03T09:03:56;12.63;;;7.77;;
7348;SDS011;13010;-33.424;-70.614;2023-02-03T09:06:47;12.30;;;9.27;;
7348;SDS011;13010;-33.424;-70.614;2023-02-03T09:09:38;31.73;;;8.80;;
7348;SDS011;13010;-33.424;-70.614;2023-02-03T09:12:26;11.97;;;7.60;;
7348;SDS011;13010;-33.424;-70.614;2023-02-03T09:15:15;17.93;;;9.10;;
7348;SDS011;13010;-33.424;-70.614;2023-02-03T09:18:04;18.10;;;7.63;;
7348;SDS011;13010;-33.424;-70.614;2023-02-03T09:21:00;11.20;;;7.53;;
7348;SDS011;13010;-33.424;-70.614;2023-02-03T09:23:49;17.53;;;7.67;;
7348;SDS011;13010;-33.424;-70.614;2023-02-03T09:26:38;12.40;;;8.30;;
7348;SDS011;13010;-33.424;-70.614;2023-02-03T09:29:27;12.67;;;7.97;;
7348;SDS011;13010;-33.424;-70.614;2023-02-03T09:32:16;20.33;;;8.27;;
7348;SDS011;13010;-33.424;-70.614;2023-02-03T09:35:05;20.13;;;8.20;;
7348;SDS011;13010;-33.424;-70.614;2023-02-03T09:37:55;12.03;;;8.57;;
7348;SDS011;13010;-33.424;-70.614;2023-02-03T09:40:46;14.53;;;8.40;;
7348;SDS011;13010;-33.424;-70.614;2023-02-03T09:43:40;11.83;;;7.47;;
7348;SDS011;13010;-33.424;-70.614;2023-02-03T09:46:37;11.33;;;7.10;;
7348;SDS011;13010;-33.424;-70.614;2023-02-03T09:49:31;13.77;;;7.23;;
7348;SDS011;13010;-33.424;-70.614;2023-02-03T09:52:24;16.10;;;8.07;;
7348;SDS011;13010;-33.424;-70.614;2023-02-03T09:55:19;12.23;;;8.23;;
7348;SDS011;13010;-33.424;-70.614;2023-02-03T09:58:13;9.53;;;6.97;;
7348;SDS011;13010;-33.424;-70.614;2023-02-03T10:01:05;17.47;;;7.60;;
7348;SDS011;13010;-33.424;-70.614;2023-02-03T10:03:59;10.07;;;6.20;;
7348;SDS011;13010;-33.424;-70.614;2023-02-03T10:07:00;13.10;;;8.40;;
7348;SDS011;13010;-33.424;-70.614;2023-02-03T10:09:55;10.00;;;7.80;;
7348;SDS011;13010;-33.424;-70.614;2023-02-03T10:12:59;12.50;;;8.50;;
7348;SDS011;13010;-33.424;-70.614;2023-02-03T10:16:05;12.93;;;7.70;;
7348;SDS011;13010;-33.424;-70.614;2023-02-03T10:19:08;14.87;;;7.60;;
7348;SDS011;13010;-33.424;-70.614;2023-02-03T10:22:03;11.33;;;7.80;;
7348;SDS011;13010;-33.424;-70.614;2023-02-03T10:24:57;14.17;;;8.77;;
7348;SDS011;13010;-33.424;-70.614;2023-02-03T10:27:51;12.73;;;8.20;;
7348;SDS011;13010;-33.424;-70.614;2023-02-03T10:30:45;53.83;;;11.30;;
7348;SDS011;13010;-33.424;-70.614;2023-02-03T10:33:35;13.20;;;8.33;;
7348;SDS011;13010;-33.424;-70.614;2023-02-03T10:36:27;17.23;;;9.03;;
7348;SDS011;13010;-33.424;-70.614;2023-02-03T10:39:30;304.67;;;32.23;;
7348;SDS011;13010;-33.424;-70.614;2023-02-03T10:42:22;16.33;;;9.20;;
7348;SDS011;13010;-33.424;-70.614;2023-02-03T10:45:31;15.30;;;9.30;;
7348;SDS011;13010;-33.424;-70.614;2023-02-03T10:48:31;13.03;;;8.83;;
7348;SDS011;13010;-33.424;-70.614;2023-02-03T10:51:21;13.53;;;7.83;;
7348;SDS011;13010;-33.424;-70.614;2023-02-03T10:57:15;14.50;;;8.07;;
7348;SDS011;13010;-33.424;-70.614;2023-02-03T11:00:18;19.53;;;8.17;;
7348;SDS011;13010;-33.424;-70.614;2023-02-03T11:03:19;12.80;;;7.23;;
7348;SDS011;13010;-33.424;-70.614;2023-02-03T11:06:13;12.60;;;7.93;;
7348;SDS011;13010;-33.424;-70.614;2023-02-03T11:09:03;14.97;;;10.10;;
7348;SDS011;13010;-33.424;-70.614;2023-02-03T11:12:15;13.07;;;8.50;;
7348;SDS011;13010;-33.424;-70.614;2023-02-03T11:15:05;16.20;;;8.93;;
7348;SDS011;13010;-33.424;-70.614;2023-02-03T11:18:04;16.60;;;9.00;;
7348;SDS011;13010;-33.424;-70.614;2023-02-03T11:21:09;21.57;;;9.17;;
7348;SDS011;13010;-33.424;-70.614;2023-02-03T11:24:03;29.07;;;10.33;;
7348;SDS011;13010;-33.424;-70.614;2023-02-03T11:26:58;13.07;;;9.60;;
7348;SDS011;13010;-33.424;-70.614;2023-02-03T11:29:51;12.80;;;9.13;;
7348;SDS011;13010;-33.424;-70.614;2023-02-03T11:32:52;17.30;;;9.03;;
7348;SDS011;13010;-33.424;-70.614;2023-02-03T11:35:54;14.13;;;8.83;;
7348;SDS011;13010;-33.424;-70.614;2023-02-03T11:38:45;17.43;;;7.50;;
7348;SDS011;13010;-33.424;-70.614;2023-02-03T11:41:36;14.17;;;7.77;;
7348;SDS011;13010;-33.424;-70.614;2023-02-03T11:44:25;11.57;;;8.07;;
7348;SDS011;13010;-33.424;-70.614;2023-02-03T11:47:17;9.50;;;6.97;;
7348;SDS011;13010;-33.424;-70.614;2023-02-03T11:50:10;17.33;;;9.00;;
7348;SDS011;13010;-33.424;-70.614;2023-02-03T11:53:22;17.43;;;10.47;;
7348;SDS011;13010;-33.424;-70.614;2023-02-03T11:56:19;15.70;;;10.00;;
7348;SDS011;13010;-33.424;-70.614;2023-02-03T11:59:22;22.90;;;12.57;;
7348;SDS011;13010;-33.424;-70.614;2023-02-03T12:02:37;21.73;;;13.03;;
7348;SDS011;13010;-33.424;-70.614;2023-02-03T12:05:49;22.70;;;11.03;;
7348;SDS011;13010;-33.424;-70.614;2023-02-03T12:08:55;25.93;;;13.23;;
7348;SDS011;13010;-33.424;-70.614;2023-02-03T12:12:03;18.53;;;12.37;;
7348;SDS011;13010;-33.424;-70.614;2023-02-03T12:15:03;23.13;;;14.20;;
7348;SDS011;13010;-33.424;-70.614;2023-02-03T12:21:15;14.37;;;12.10;;
7348;SDS011;13010;-33.424;-70.614;2023-02-03T12:24:25;22.23;;;12.87;;
7348;SDS011;13010;-33.424;-70.614;2023-02-03T12:27:28;20.13;;;13.20;;
7348;SDS011;13010;-33.424;-70.614;2023-02-03T12:30:28;17.93;;;12.67;;
7348;SDS011;13010;-33.424;-70.614;2023-02-03T12:33:22;22.07;;;13.20;;
7348;SDS011;13010;-33.424;-70.614;2023-02-03T12:36:17;22.70;;;14.17;;
7348;SDS011;13010;-33.424;-70.614;2023-02-03T12:40:53;22.93;;;13.33;;
7348;SDS011;13010;-33.424;-70.614;2023-02-03T12:43:46;21.67;;;14.70;;
7348;SDS011;13010;-33.424;-70.614;2023-02-03T12:46:39;18.10;;;13.70;;
7348;SDS011;13010;-33.424;-70.614;2023-02-03T12:49:34;20.60;;;14.90;;
7348;SDS011;13010;-33.424;-70.614;2023-02-03T12:52:31;21.97;;;15.33;;
7348;SDS011;13010;-33.424;-70.614;2023-02-03T12:55:26;17.10;;;14.33;;
7348;SDS011;13010;-33.424;-70.614;2023-02-03T12:58:20;27.23;;;15.57;;
7348;SDS011;13010;-33.424;-70.614;2023-02-03T13:01:23;20.23;;;15.07;;
7348;SDS011;13010;-33.424;-70.614;2023-02-03T13:04:20;22.47;;;15.07;;
7348;SDS011;13010;-33.424;-70.614;2023-02-03T13:07:22;19.07;;;14.90;;
7348;SDS011;13010;-33.424;-70.614;2023-02-03T13:10:15;24.13;;;17.00;;
7348;SDS011;13010;-33.424;-70.614;2023-02-03T13:13:09;21.03;;;14.60;;
7348;SDS011;13010;-33.424;-70.614;2023-02-03T13:16:02;28.67;;;17.07;;
7348;SDS011;13010;-33.424;-70.614;2023-02-03T13:18:57;24.00;;;15.77;;
7348;SDS011;13010;-33.424;-70.614;2023-02-03T13:21:51;15.70;;;13.80;;
7348;SDS011;13010;-33.424;-70.614;2023-02-03T13:24:45;19.03;;;13.80;;
7348;SDS011;13010;-33.424;-70.614;2023-02-03T13:27:39;17.20;;;15.10;;
7348;SDS011;13010;-33.424;-70.614;2023-02-03T13:33:58;22.10;;;13.90;;
7348;SDS011;13010;-33.424;-70.614;2023-02-03T13:37:13;20.27;;;15.60;;
7348;SDS011;13010;-33.424;-70.614;2023-02-03T13:40:27;19.67;;;14.67;;
7348;SDS011;13010;-33.424;-70.614;2023-02-03T13:43:25;20.80;;;15.40;;
7348;SDS011;13010;-33.424;-70.614;2023-02-03T13:46:21;31.93;;;15.07;;
7348;SDS011;13010;-33.424;-70.614;2023-02-03T13:49:17;20.43;;;14.57;;
7348;SDS011;13010;-33.424;-70.614;2023-02-03T13:52:22;18.23;;;14.00;;
7348;SDS011;13010;-33.424;-70.614;2023-02-03T13:55:25;17.07;;;12.13;;
7348;SDS011;13010;-33.424;-70.614;2023-02-03T13:58:20;19.70;;;14.10;;
7348;SDS011;13010;-33.424;-70.614;2023-02-03T14:01:27;19.17;;;14.30;;
7348;SDS011;13010;-33.424;-70.614;2023-02-03T14:07:39;16.03;;;13.27;;
7348;SDS011;13010;-33.424;-70.614;2023-02-03T14:10:28;13.93;;;12.00;;
7348;SDS011;13010;-33.424;-70.614;2023-02-03T14:13:19;28.57;;;13.77;;
7348;SDS011;13010;-33.424;-70.614;2023-02-03T14:16:20;29.43;;;14.13;;
7348;SDS011;13010;-33.424;-70.614;2023-02-03T14:19:10;23.10;;;15.83;;
7348;SDS011;13010;-33.424;-70.614;2023-02-03T14:22:24;20.30;;;12.97;;
7348;SDS011;13010;-33.424;-70.614;2023-02-03T14:25:14;20.17;;;12.77;;
7348;SDS011;13010;-33.424;-70.614;2023-02-03T14:28:08;21.77;;;12.97;;
7348;SDS011;13010;-33.424;-70.614;2023-02-03T14:31:06;22.90;;;12.70;;
7348;SDS011;13010;-33.424;-70.614;2023-02-03T14:34:11;16.50;;;12.90;;
7348;SDS011;13010;-33.424;-70.614;2023-02-03T14:37:12;14.77;;;12.83;;
7348;SDS011;13010;-33.424;-70.614;2023-02-03T14:43:21;19.07;;;13.47;;
7348;SDS011;13010;-33.424;-70.614;2023-02-03T14:46:23;20.63;;;12.97;;
7348;SDS011;13010;-33.424;-70.614;2023-02-03T14:49:34;20.30;;;11.73;;
7348;SDS011;13010;-33.424;-70.614;2023-02-03T14:52:42;18.40;;;12.47;;
7348;SDS011;13010;-33.424;-70.614;2023-02-03T14:55:48;18.80;;;13.27;;
7348;SDS011;13010;-33.424;-70.614;2023-02-03T14:58:47;16.67;;;11.90;;
7348;SDS011;13010;-33.424;-70.614;2023-02-03T15:08:38;12.17;;;11.00;;
7348;SDS011;13010;-33.424;-70.614;2023-02-03T15:11:33;16.30;;;12.50;;
7348;SDS011;13010;-33.424;-70.614;2023-02-03T15:14:31;24.20;;;11.70;;
7348;SDS011;13010;-33.424;-70.614;2023-02-03T15:17:21;17.63;;;12.00;;
7348;SDS011;13010;-33.424;-70.614;2023-02-03T15:23:22;14.77;;;11.30;;
7348;SDS011;13010;-33.424;-70.614;2023-02-03T15:26:13;17.03;;;12.27;;
7348;SDS011;13010;-33.424;-70.614;2023-02-03T15:29:05;18.40;;;12.10;;
7348;SDS011;13010;-33.424;-70.614;2023-02-03T15:32:07;13.00;;;10.43;;
7348;SDS011;13010;-33.424;-70.614;2023-02-03T15:35:01;13.70;;;12.03;;
7348;SDS011;13010;-33.424;-70.614;2023-02-03T15:37:53;14.70;;;11.07;;
7348;SDS011;13010;-33.424;-70.614;2023-02-03T15:40:46;14.80;;;11.77;;
7348;SDS011;13010;-33.424;-70.614;2023-02-03T15:43:42;16.80;;;11.20;;
7348;SDS011;13010;-33.424;-70.614;2023-02-03T15:46:37;15.30;;;13.23;;
7348;SDS011;13010;-33.424;-70.614;2023-02-03T15:49:31;15.27;;;12.43;;
7348;SDS011;13010;-33.424;-70.614;2023-02-03T15:52:23;17.17;;;14.50;;
7348;SDS011;13010;-33.424;-70.614;2023-02-03T15:55:17;17.10;;;12.60;;
7348;SDS011;13010;-33.424;-70.614;2023-02-03T15:58:13;23.77;;;12.30;;
7348;SDS011;13010;-33.424;-70.614;2023-02-03T16:01:07;15.43;;;12.97;;
7348;SDS011;13010;-33.424;-70.614;2023-02-03T16:04:00;18.77;;;14.37;;
7348;SDS011;13010;-33.424;-70.614;2023-02-03T16:06:56;17.10;;;13.97;;
7348;SDS011;13010;-33.424;-70.614;2023-02-03T16:09:45;17.33;;;12.83;;
7348;SDS011;13010;-33.424;-70.614;2023-02-03T16:12:37;15.90;;;12.47;;
7348;SDS011;13010;-33.424;-70.614;2023-02-03T16:15:26;23.10;;;14.30;;
7348;SDS011;13010;-33.424;-70.614;2023-02-03T16:18:23;19.73;;;13.67;;
7348;SDS011;13010;-33.424;-70.614;2023-02-03T16:21:22;21.70;;;15.03;;
7348;SDS011;13010;-33.424;-70.614;2023-02-03T16:24:26;30.10;;;15.47;;
7348;SDS011;13010;-33.424;-70.614;2023-02-03T16:27:31;22.03;;;14.87;;
7348;SDS011;13010;-33.424;-70.614;2023-02-03T16:30:22;23.03;;;14.93;;
7348;SDS011;13010;-33.424;-70.614;2023-02-03T16:33:30;24.73;;;14.13;;
7348;SDS011;13010;-33.424;-70.614;2023-02-03T16:36:40;23.37;;;14.73;;
7348;SDS011;13010;-33.424;-70.614;2023-02-03T16:39:46;18.70;;;14.23;;
7348;SDS011;13010;-33.424;-70.614;2023-02-03T16:42:51;16.77;;;12.70;;
7348;SDS011;13010;-33.424;-70.614;2023-02-03T16:45:57;20.97;;;13.53;;
7348;SDS011;13010;-33.424;-70.614;2023-02-03T16:49:03;17.67;;;12.80;;
7348;SDS011;13010;-33.424;-70.614;2023-02-03T16:52:10;15.00;;;12.57;;
7348;SDS011;13010;-33.424;-70.614;2023-02-03T16:54:59;15.07;;;12.27;;
7348;SDS011;13010;-33.424;-70.614;2023-02-03T16:57:48;21.53;;;13.87;;
7348;SDS011;13010;-33.424;-70.614;2023-02-03T17:00:37;28.53;;;13.87;;
7348;SDS011;13010;-33.424;-70.614;2023-02-03T17:03:30;23.73;;;14.10;;